createdAt,value
2019-04-04T00:00:08.886Z,0.00
2019-04-04T00:01:08.865Z,0.00
2019-04-04T00:02:08.854Z,0.00
2019-04-04T00:03:08.878Z,0.00
2019-04-04T00:04:08.847Z,0.00
2019-04-04T00:05:08.855Z,0.00
2019-04-04T00:06:08.836Z,0.00
2019-04-04T00:07:08.820Z,0.00
2019-04-04T00:08:08.801Z,0.00
2019-04-04T00:09:08.783Z,0.00
2019-04-04T00:10:08.791Z,0.00
2019-04-04T00:11:08.770Z,0.00
2019-04-04T00:12:08.794Z,0.00
2019-04-04T00:13:09.235Z,0.00
2019-04-04T00:14:12.598Z,0.00
2019-04-04T00:15:08.717Z,0.00
2019-04-04T00:16:08.728Z,0.00
2019-04-04T00:17:08.728Z,0.00
2019-04-04T00:18:08.688Z,0.00
2019-04-04T00:19:08.678Z,0.00
2019-04-04T00:20:08.667Z,0.00
2019-04-04T00:21:08.666Z,0.00
2019-04-04T00:22:08.704Z,0.00
2019-04-04T00:23:08.707Z,0.00
2019-04-04T00:24:09.054Z,0.00
2019-04-04T00:25:10.470Z,0.00
2019-04-04T00:26:10.540Z,0.00
2019-04-04T00:27:08.593Z,0.00
2019-04-04T00:28:08.612Z,0.00
2019-04-04T00:29:08.615Z,0.00
2019-04-04T00:30:08.602Z,0.00
2019-04-04T00:31:08.603Z,0.00
2019-04-04T00:32:08.532Z,0.00
2019-04-04T00:33:08.539Z,0.00
2019-04-04T00:34:08.529Z,0.00
2019-04-04T00:35:08.499Z,0.00
2019-04-04T00:36:08.539Z,0.00
2019-04-04T00:37:08.477Z,0.00
2019-04-04T00:38:08.521Z,0.00
2019-04-04T00:39:09.422Z,0.00
2019-04-04T00:40:10.838Z,0.00
2019-04-04T00:41:08.435Z,0.00
2019-04-04T00:42:08.428Z,0.00
2019-04-04T00:43:08.424Z,0.00
2019-04-04T00:44:08.406Z,0.00
2019-04-04T00:45:08.460Z,0.00
2019-04-04T00:46:08.383Z,0.00
2019-04-04T00:47:08.374Z,0.00
2019-04-04T00:48:08.366Z,0.00
2019-04-04T00:49:08.373Z,0.00
2019-04-04T00:50:08.363Z,0.00
2019-04-04T00:51:08.621Z,0.00
2019-04-04T00:52:10.327Z,0.00
2019-04-04T00:53:09.931Z,0.00
2019-04-04T00:54:08.300Z,0.00
2019-04-04T00:55:08.290Z,0.00
2019-04-04T00:56:08.288Z,0.00
2019-04-04T00:57:08.268Z,0.00
2019-04-04T00:58:08.268Z,0.00
2019-04-04T00:59:08.252Z,0.00
2019-04-04T01:00:08.248Z,0.00
2019-04-04T01:01:08.226Z,0.00
2019-04-04T01:02:08.236Z,0.00
2019-04-04T01:03:08.206Z,0.00
2019-04-04T01:04:08.196Z,0.00
2019-04-04T01:05:08.184Z,0.00
2019-04-04T01:06:08.178Z,0.00
2019-04-04T01:07:08.176Z,0.00
2019-04-04T01:08:08.162Z,0.00
2019-04-04T01:09:11.319Z,0.00
2019-04-04T01:10:08.131Z,0.00
2019-04-04T01:11:08.151Z,0.00
2019-04-04T01:12:08.112Z,0.00
2019-04-04T01:13:08.102Z,0.00
2019-04-04T01:14:08.089Z,0.00
2019-04-04T01:15:08.080Z,0.00
2019-04-04T01:16:08.070Z,0.00
2019-04-04T01:17:08.073Z,0.00
2019-04-04T01:18:08.052Z,0.00
2019-04-04T01:19:09.589Z,0.00
2019-04-04T01:20:08.027Z,0.00
2019-04-04T01:21:08.016Z,0.00
2019-04-04T01:22:08.016Z,0.00
2019-04-04T01:23:07.998Z,0.00
2019-04-04T01:24:07.986Z,0.00
2019-04-04T01:25:07.983Z,0.00
2019-04-04T01:26:07.974Z,0.00
2019-04-04T01:27:07.964Z,0.00
2019-04-04T01:28:08.715Z,0.00
2019-04-04T01:29:10.165Z,0.00
2019-04-04T01:30:07.913Z,0.00
2019-04-04T01:31:07.911Z,0.00
2019-04-04T01:32:07.902Z,0.00
2019-04-04T01:33:07.881Z,0.00
2019-04-04T01:34:07.880Z,0.00
2019-04-04T01:35:07.860Z,0.00
2019-04-04T01:36:07.861Z,0.00
2019-04-04T01:37:07.869Z,0.00
2019-04-04T01:38:07.848Z,0.00
2019-04-04T01:39:07.826Z,0.00
2019-04-04T01:40:07.810Z,0.00
2019-04-04T01:41:07.808Z,0.00
2019-04-04T01:42:07.979Z,0.00
2019-04-04T01:43:09.329Z,0.00
2019-04-04T01:44:11.039Z,0.00
2019-04-04T01:45:07.764Z,0.00
2019-04-04T01:46:07.754Z,0.00
2019-04-04T01:47:07.767Z,0.00
2019-04-04T01:48:07.764Z,0.00
2019-04-04T01:49:07.727Z,0.00
2019-04-04T01:50:07.703Z,0.00
2019-04-04T01:51:08.047Z,0.00
2019-04-04T01:52:07.693Z,0.00
2019-04-04T01:53:07.701Z,0.00
2019-04-04T01:54:07.670Z,0.00
2019-04-04T01:55:07.670Z,0.00
2019-04-04T01:56:07.640Z,0.00
2019-04-04T01:57:08.133Z,0.00
2019-04-04T01:58:08.012Z,0.00
2019-04-04T01:59:07.617Z,0.00
2019-04-04T02:00:07.598Z,0.00
2019-04-04T02:01:07.587Z,0.00
2019-04-04T02:02:07.577Z,0.00
2019-04-04T02:03:07.577Z,0.00
2019-04-04T02:04:07.556Z,0.00
2019-04-04T02:05:07.548Z,0.00
2019-04-04T02:06:07.543Z,0.00
2019-04-04T02:07:07.529Z,0.00
2019-04-04T02:08:07.514Z,0.00
2019-04-04T02:09:07.503Z,0.00
2019-04-04T02:10:07.506Z,0.00
2019-04-04T02:11:07.505Z,0.00
2019-04-04T02:12:08.005Z,0.00
2019-04-04T02:13:09.553Z,0.00
2019-04-04T02:14:07.465Z,0.00
2019-04-04T02:15:07.450Z,0.00
2019-04-04T02:16:07.430Z,0.00
2019-04-04T02:17:07.428Z,0.00
2019-04-04T02:18:07.429Z,0.00
2019-04-04T02:19:07.409Z,0.00
2019-04-04T02:20:07.390Z,0.00
2019-04-04T02:21:07.379Z,0.00
2019-04-04T02:22:07.369Z,0.00
2019-04-04T02:23:07.359Z,0.00
2019-04-04T02:24:07.356Z,0.00
2019-04-04T02:25:07.337Z,0.00
2019-04-04T02:26:07.328Z,0.00
2019-04-04T02:27:07.627Z,0.00
2019-04-04T02:28:08.939Z,0.00
2019-04-04T02:29:08.992Z,0.00
2019-04-04T02:30:07.282Z,0.00
2019-04-04T02:31:07.284Z,0.00
2019-04-04T02:32:07.254Z,0.00
2019-04-04T02:33:07.304Z,0.00
2019-04-04T02:34:07.264Z,0.00
2019-04-04T02:35:10.187Z,0.00
2019-04-04T02:36:07.220Z,0.00
2019-04-04T02:37:07.220Z,0.00
2019-04-04T02:38:07.234Z,0.00
2019-04-04T02:39:07.199Z,0.00
2019-04-04T02:40:08.696Z,0.00
2019-04-04T02:41:07.160Z,0.00
2019-04-04T02:42:07.159Z,0.00
2019-04-04T02:43:07.147Z,0.00
2019-04-04T02:44:07.126Z,0.00
2019-04-04T02:45:07.146Z,0.00
2019-04-04T02:46:10.984Z,0.00
2019-04-04T02:47:07.105Z,0.00
2019-04-04T02:48:07.096Z,0.00
2019-04-04T02:49:07.117Z,0.00
2019-04-04T02:50:07.084Z,0.00
2019-04-04T02:51:08.029Z,0.00
2019-04-04T02:52:07.067Z,0.00
2019-04-04T02:53:07.035Z,0.00
2019-04-04T02:54:07.041Z,0.00
2019-04-04T02:55:07.021Z,0.00
2019-04-04T02:56:07.001Z,0.00
2019-04-04T02:57:09.304Z,0.00
2019-04-04T02:58:06.986Z,0.00
2019-04-04T02:59:06.970Z,0.00
2019-04-04T03:00:07.025Z,0.00
2019-04-04T03:01:06.958Z,0.00
2019-04-04T03:02:06.958Z,0.00
2019-04-04T03:03:09.194Z,0.00
2019-04-04T03:04:06.916Z,0.00
2019-04-04T03:05:06.959Z,0.00
2019-04-04T03:06:06.906Z,0.00
2019-04-04T03:07:06.888Z,0.00
2019-04-04T03:08:06.898Z,0.00
2019-04-04T03:09:10.129Z,0.00
2019-04-04T03:10:06.860Z,0.00
2019-04-04T03:11:06.853Z,0.00
2019-04-04T03:12:06.832Z,0.00
2019-04-04T03:13:06.824Z,0.00
2019-04-04T03:14:06.814Z,0.00
2019-04-04T03:15:09.051Z,0.00
2019-04-04T03:16:06.805Z,0.00
2019-04-04T03:17:06.791Z,0.00
2019-04-04T03:18:06.809Z,0.00
2019-04-04T03:19:09.971Z,0.00
2019-04-04T03:20:06.753Z,0.00
2019-04-04T03:21:06.729Z,0.00
2019-04-04T03:22:06.749Z,0.00
2019-04-04T03:23:06.720Z,0.00
2019-04-04T03:24:07.338Z,0.00
2019-04-04T03:25:06.698Z,0.00
2019-04-04T03:26:06.698Z,0.00
2019-04-04T03:27:06.677Z,0.00
2019-04-04T03:28:06.671Z,0.00
2019-04-04T03:29:10.253Z,0.00
2019-04-04T03:30:13.297Z,0.00
2019-04-04T03:31:07.637Z,0.00
2019-04-04T03:32:13.399Z,0.00
2019-04-04T03:33:07.631Z,0.00
2019-04-04T03:34:11.404Z,0.00
2019-04-04T03:35:07.648Z,0.00
2019-04-04T03:36:06.596Z,0.00
2019-04-04T03:37:08.963Z,0.00
2019-04-04T03:38:07.553Z,0.00
2019-04-04T03:39:06.550Z,0.00
2019-04-04T03:40:06.554Z,0.00
2019-04-04T03:41:06.528Z,0.00
2019-04-04T03:42:08.134Z,0.00
2019-04-04T03:43:06.501Z,0.00
2019-04-04T03:44:06.516Z,0.00
2019-04-04T03:45:06.477Z,0.00
2019-04-04T03:46:06.477Z,0.00
2019-04-04T03:47:09.907Z,0.00
2019-04-04T03:48:06.446Z,0.00
2019-04-04T03:49:06.447Z,0.00
2019-04-04T03:50:06.433Z,0.00
2019-04-04T03:51:06.425Z,0.00
2019-04-04T03:52:10.207Z,0.00
2019-04-04T03:53:06.423Z,0.00
2019-04-04T03:54:06.384Z,0.00
2019-04-04T03:55:06.373Z,0.00
2019-04-04T03:56:06.408Z,0.00
2019-04-04T03:57:08.575Z,0.00
2019-04-04T03:58:07.350Z,0.00
2019-04-04T03:59:06.331Z,0.00
2019-04-04T04:00:07.471Z,0.00
2019-04-04T04:01:06.313Z,0.00
2019-04-04T04:02:06.308Z,0.00
2019-04-04T04:03:06.290Z,0.00
2019-04-04T04:04:06.282Z,0.00
2019-04-04T04:05:06.259Z,0.00
2019-04-04T04:06:08.870Z,0.00
2019-04-04T04:07:06.248Z,0.00
2019-04-04T04:08:06.236Z,0.00
2019-04-04T04:09:06.242Z,0.00
2019-04-04T04:10:06.241Z,0.00
2019-04-04T04:11:06.254Z,0.00
2019-04-04T04:12:10.074Z,0.00
2019-04-04T04:13:06.219Z,0.00
2019-04-04T04:14:06.175Z,0.00
2019-04-04T04:15:06.156Z,0.00
2019-04-04T04:16:06.216Z,0.00
2019-04-04T04:17:06.156Z,0.00
2019-04-04T04:18:06.145Z,0.00
2019-04-04T04:19:06.134Z,0.00
2019-04-04T04:20:06.106Z,0.00
2019-04-04T04:21:09.760Z,0.00
2019-04-04T04:22:06.089Z,0.00
2019-04-04T04:23:06.080Z,0.00
2019-04-04T04:24:06.069Z,0.00
2019-04-04T04:25:06.071Z,0.00
2019-04-04T04:26:09.510Z,0.00
2019-04-04T04:27:06.058Z,0.00
2019-04-04T04:28:06.050Z,0.00
2019-04-04T04:29:06.036Z,0.00
2019-04-04T04:30:07.412Z,0.00
2019-04-04T04:31:05.996Z,0.00
2019-04-04T04:32:06.006Z,0.00
2019-04-04T04:33:05.976Z,0.00
2019-04-04T04:34:05.993Z,0.00
2019-04-04T04:35:08.752Z,0.00
2019-04-04T04:36:09.423Z,0.00
2019-04-04T04:37:05.937Z,0.00
2019-04-04T04:38:05.921Z,0.00
2019-04-04T04:39:05.921Z,0.00
2019-04-04T04:40:05.902Z,0.00
2019-04-04T04:41:05.880Z,0.00
2019-04-04T04:42:05.870Z,0.00
2019-04-04T04:43:05.891Z,0.00
2019-04-04T04:44:06.612Z,0.00
2019-04-04T04:45:05.841Z,4.00
2019-04-04T04:46:05.830Z,4.00
2019-04-04T04:47:05.838Z,4.00
2019-04-04T04:48:05.819Z,4.00
2019-04-04T04:49:05.826Z,4.00
2019-04-04T04:50:08.702Z,8.00
2019-04-04T04:51:05.777Z,4.00
2019-04-04T04:52:05.795Z,8.00
2019-04-04T04:53:05.755Z,8.00
2019-04-04T04:54:05.817Z,8.00
2019-04-04T04:55:05.790Z,12.00
2019-04-04T04:56:05.737Z,12.00
2019-04-04T04:57:05.739Z,12.00
2019-04-04T04:58:09.852Z,16.00
2019-04-04T04:59:05.700Z,20.00
2019-04-04T05:00:05.682Z,24.00
2019-04-04T05:01:05.670Z,28.00
2019-04-04T05:02:05.670Z,32.00
2019-04-04T05:03:05.673Z,36.00
2019-04-04T05:04:05.655Z,40.00
2019-04-04T05:05:05.630Z,40.00
2019-04-04T05:06:05.618Z,48.00
2019-04-04T05:07:07.371Z,52.00
2019-04-04T05:08:05.599Z,60.00
2019-04-04T05:09:05.588Z,68.00
2019-04-04T05:10:05.566Z,72.00
2019-04-04T05:11:05.557Z,80.00
2019-04-04T05:12:05.565Z,88.00
2019-04-04T05:13:05.549Z,96.00
2019-04-04T05:14:05.538Z,104.00
2019-04-04T05:15:05.513Z,116.00
2019-04-04T05:16:08.762Z,128.00
2019-04-04T05:17:05.493Z,140.00
2019-04-04T05:18:05.484Z,156.00
2019-04-04T05:19:05.483Z,172.00
2019-04-04T05:20:05.462Z,192.00
2019-04-04T05:21:05.458Z,212.00
2019-04-04T05:22:08.803Z,232.00
2019-04-04T05:23:05.462Z,248.00
2019-04-04T05:24:05.450Z,268.00
2019-04-04T05:25:08.563Z,284.00
2019-04-04T05:26:05.411Z,300.00
2019-04-04T05:27:06.089Z,316.00
2019-04-04T05:28:06.365Z,320.00
2019-04-04T05:29:05.391Z,308.00
2019-04-04T05:30:08.189Z,292.00
2019-04-04T05:31:05.370Z,284.00
2019-04-04T05:32:05.345Z,272.00
2019-04-04T05:33:05.326Z,272.00
2019-04-04T05:34:05.339Z,276.00
2019-04-04T05:35:05.323Z,284.00
2019-04-04T05:36:05.976Z,312.00
2019-04-04T05:37:07.289Z,348.00
2019-04-04T05:38:07.607Z,396.00
2019-04-04T05:39:05.314Z,440.00
2019-04-04T05:40:05.266Z,484.00
2019-04-04T05:41:05.251Z,536.00
2019-04-04T05:42:05.242Z,616.00
2019-04-04T05:43:05.223Z,720.00
2019-04-04T05:44:05.258Z,828.00
2019-04-04T05:45:05.201Z,900.00
2019-04-04T05:46:05.186Z,928.00
2019-04-04T05:47:05.181Z,948.00
2019-04-04T05:48:05.167Z,1008.00
2019-04-04T05:49:07.685Z,1092.00
2019-04-04T05:50:05.177Z,1164.00
2019-04-04T05:51:05.159Z,1228.00
2019-04-04T05:52:05.145Z,1288.00
2019-04-04T05:53:05.115Z,1364.00
2019-04-04T05:54:06.995Z,1412.00
2019-04-04T05:55:05.107Z,1416.00
2019-04-04T05:56:06.524Z,1472.00
2019-04-04T05:57:05.074Z,1528.00
2019-04-04T05:58:05.054Z,1268.00
2019-04-04T05:59:05.052Z,1212.00
2019-04-04T06:00:05.042Z,1192.00
2019-04-04T06:01:05.046Z,1252.00
2019-04-04T06:02:05.022Z,1236.00
2019-04-04T06:03:05.011Z,1276.00
2019-04-04T06:04:04.991Z,1320.00
2019-04-04T06:05:04.987Z,1396.00
2019-04-04T06:06:04.980Z,1456.00
2019-04-04T06:07:05.078Z,1496.00
2019-04-04T06:08:07.830Z,1548.00
2019-04-04T06:09:04.938Z,1612.00
2019-04-04T06:10:04.928Z,1696.00
2019-04-04T06:11:04.917Z,1780.00
2019-04-04T06:12:04.927Z,1844.00
2019-04-04T06:13:04.896Z,1892.00
2019-04-04T06:14:04.885Z,1928.00
2019-04-04T06:15:04.884Z,1920.00
2019-04-04T06:16:05.022Z,1888.00
2019-04-04T06:17:05.135Z,1848.00
2019-04-04T06:18:04.863Z,1836.00
2019-04-04T06:19:04.835Z,1872.00
2019-04-04T06:20:04.831Z,1916.00
2019-04-04T06:21:04.825Z,1964.00
2019-04-04T06:22:04.832Z,2008.00
2019-04-04T06:23:04.802Z,2068.00
2019-04-04T06:24:04.809Z,2136.00
2019-04-04T06:25:04.809Z,2212.00
2019-04-04T06:26:07.444Z,2264.00
2019-04-04T06:27:04.771Z,2296.00
2019-04-04T06:28:04.739Z,2356.00
2019-04-04T06:29:05.771Z,2448.00
2019-04-04T06:30:04.720Z,2588.00
2019-04-04T06:31:04.743Z,2668.00
2019-04-04T06:32:04.706Z,2668.00
2019-04-04T06:33:05.067Z,2716.00
2019-04-04T06:34:05.965Z,2816.00
2019-04-04T06:35:04.680Z,2772.00
2019-04-04T06:36:04.676Z,2616.00
2019-04-04T06:37:04.659Z,2440.00
2019-04-04T06:38:04.624Z,2328.00
2019-04-04T06:39:04.633Z,2284.00
2019-04-04T06:40:04.623Z,2288.00
2019-04-04T06:41:04.613Z,2348.00
2019-04-04T06:42:04.598Z,2424.00
2019-04-04T06:43:10.296Z,2420.00
2019-04-04T06:44:05.580Z,2344.00
2019-04-04T06:45:04.561Z,2296.00
2019-04-04T06:46:04.567Z,2408.00
2019-04-04T06:47:04.540Z,2688.00
2019-04-04T06:48:04.522Z,3168.00
2019-04-04T06:49:05.098Z,3592.00
2019-04-04T06:50:07.144Z,3956.00
2019-04-04T06:51:04.488Z,4240.00
2019-04-04T06:52:04.500Z,4872.00
2019-04-04T06:53:04.468Z,5240.00
2019-04-04T06:54:04.457Z,4888.00
2019-04-04T06:55:04.447Z,5004.00
2019-04-04T06:56:04.452Z,4860.00
2019-04-04T06:57:04.871Z,4848.00
2019-04-04T06:58:08.204Z,4872.00
2019-04-04T06:59:04.409Z,4700.00
2019-04-04T07:00:04.398Z,4712.00
2019-04-04T07:01:04.383Z,6128.00
2019-04-04T07:02:05.292Z,7152.00
2019-04-04T07:03:04.385Z,6808.00
2019-04-04T07:04:04.376Z,8164.00
2019-04-04T07:05:06.195Z,8912.00
2019-04-04T07:06:04.351Z,10308.00
2019-04-04T07:07:04.338Z,9268.00
2019-04-04T07:08:04.334Z,8616.00
2019-04-04T07:09:04.311Z,10276.00
2019-04-04T07:10:04.300Z,10152.00
2019-04-04T07:11:07.005Z,8016.00
2019-04-04T07:12:06.760Z,7404.00
2019-04-04T07:13:20.206Z,7044.00
2019-04-04T07:14:05.251Z,5764.00
2019-04-04T07:15:04.238Z,4728.00
2019-04-04T07:16:07.697Z,4096.00
2019-04-04T07:17:04.417Z,3908.00
2019-04-04T07:18:04.214Z,3648.00
2019-04-04T07:19:04.206Z,3220.00
2019-04-04T07:20:04.206Z,3012.00
2019-04-04T07:21:04.175Z,3084.00
2019-04-04T07:22:04.174Z,3060.00
2019-04-04T07:23:04.163Z,3052.00
2019-04-04T07:24:04.143Z,3416.00
2019-04-04T07:25:06.698Z,4020.00
2019-04-04T07:26:04.125Z,4588.00
2019-04-04T07:27:04.120Z,4796.00
2019-04-04T07:28:04.111Z,4560.00
2019-04-04T07:29:04.082Z,4468.00
2019-04-04T07:30:04.081Z,4896.00
2019-04-04T07:31:04.100Z,5644.00
2019-04-04T07:32:04.051Z,6228.00
2019-04-04T07:33:04.049Z,6420.00
2019-04-04T07:34:04.030Z,6252.00
2019-04-04T07:35:04.028Z,5580.00
2019-04-04T07:36:04.048Z,4612.00
2019-04-04T07:37:04.001Z,3868.00
2019-04-04T07:38:04.007Z,4292.00
2019-04-04T07:39:03.977Z,6108.00
2019-04-04T07:40:04.536Z,7656.00
2019-04-04T07:41:03.958Z,7068.00
2019-04-04T07:42:03.968Z,6284.00
2019-04-04T07:43:03.970Z,6896.00
2019-04-04T07:44:03.933Z,7740.00
2019-04-04T07:45:03.923Z,7292.00
2019-04-04T07:46:15.610Z,7784.00
2019-04-04T07:47:04.897Z,7352.00
2019-04-04T07:48:03.909Z,6140.00
2019-04-04T07:49:03.882Z,5192.00
2019-04-04T07:50:03.856Z,4488.00
2019-04-04T07:51:03.861Z,3984.00
2019-04-04T07:52:03.861Z,4024.00
2019-04-04T07:53:04.959Z,4344.00
2019-04-04T07:54:05.179Z,4764.00
2019-04-04T07:55:03.839Z,6308.00
2019-04-04T07:56:03.799Z,5536.00
2019-04-04T07:57:03.789Z,5096.00
2019-04-04T07:58:03.842Z,4912.00
2019-04-04T07:59:03.799Z,5028.00
2019-04-04T08:00:03.758Z,10524.00
2019-04-04T08:01:03.766Z,12372.00
2019-04-04T08:02:03.736Z,8488.00
2019-04-04T08:03:04.741Z,17952.00
2019-04-04T08:04:06.523Z,25728.00
2019-04-04T08:05:03.716Z,26048.00
2019-04-04T08:06:03.715Z,17984.00
2019-04-04T08:07:03.698Z,16160.00
2019-04-04T08:08:03.752Z,12104.00
2019-04-04T08:09:03.664Z,12052.00
2019-04-04T08:10:03.653Z,9040.00
2019-04-04T08:11:03.677Z,6800.00
2019-04-04T08:12:03.642Z,5872.00
2019-04-04T08:13:03.720Z,5468.00
2019-04-04T08:14:03.612Z,8240.00
2019-04-04T08:15:03.656Z,9844.00
2019-04-04T08:16:04.185Z,10884.00
2019-04-04T08:17:03.579Z,8228.00
2019-04-04T08:18:03.610Z,10140.00
2019-04-04T08:19:03.549Z,11164.00
2019-04-04T08:20:03.551Z,7840.00
2019-04-04T08:21:05.700Z,8484.00
2019-04-04T08:22:03.572Z,13376.00
2019-04-04T08:23:03.546Z,14168.00
2019-04-04T08:24:03.547Z,20000.00
2019-04-04T08:25:03.501Z,17472.00
2019-04-04T08:26:03.480Z,13704.00
2019-04-04T08:27:04.177Z,13316.00
2019-04-04T08:28:03.475Z,12024.00
2019-04-04T08:29:03.460Z,11388.00
2019-04-04T08:30:03.445Z,10320.00
2019-04-04T08:31:03.433Z,9836.00
2019-04-04T08:32:03.445Z,8984.00
2019-04-04T08:33:03.404Z,8208.00
2019-04-04T08:34:03.424Z,7600.00
2019-04-04T08:35:03.384Z,6908.00
2019-04-04T08:36:06.118Z,6360.00
2019-04-04T08:37:03.374Z,6044.00
2019-04-04T08:38:03.347Z,5636.00
2019-04-04T08:39:03.367Z,5348.00
2019-04-04T08:40:03.330Z,5132.00
2019-04-04T08:41:03.933Z,4812.00
2019-04-04T08:42:03.300Z,4636.00
2019-04-04T08:43:03.317Z,4512.00
2019-04-04T08:44:03.280Z,4592.00
2019-04-04T08:45:03.280Z,4888.00
2019-04-04T08:46:03.259Z,5160.00
2019-04-04T08:47:03.258Z,5760.00
2019-04-04T08:48:03.257Z,6304.00
2019-04-04T08:49:03.235Z,6240.00
2019-04-04T08:50:03.217Z,6200.00
2019-04-04T08:51:03.351Z,6068.00
2019-04-04T08:52:15.875Z,5980.00
2019-04-04T08:53:04.213Z,5908.00
2019-04-04T08:54:03.176Z,5656.00
2019-04-04T08:55:03.175Z,5436.00
2019-04-04T08:56:03.164Z,5348.00
2019-04-04T08:57:03.153Z,5452.00
2019-04-04T08:58:03.143Z,5648.00
2019-04-04T08:59:03.122Z,5808.00
2019-04-04T09:00:03.134Z,5860.00
2019-04-04T09:01:03.172Z,5988.00
2019-04-04T09:02:03.098Z,6292.00
2019-04-04T09:03:03.100Z,6556.00
2019-04-04T09:04:03.105Z,6764.00
2019-04-04T09:05:11.782Z,6936.00
2019-04-04T09:06:04.071Z,7036.00
2019-04-04T09:07:03.083Z,7124.00
2019-04-04T09:08:03.029Z,7084.00
2019-04-04T09:09:03.032Z,7096.00
2019-04-04T09:10:03.049Z,7384.00
2019-04-04T09:11:03.018Z,7676.00
2019-04-04T09:12:03.079Z,7728.00
2019-04-04T09:13:03.090Z,7388.00
2019-04-04T09:14:02.956Z,7208.00
2019-04-04T09:15:03.469Z,7480.00
2019-04-04T09:16:02.937Z,7456.00
2019-04-04T09:17:02.959Z,7456.00
2019-04-04T09:18:02.924Z,7484.00
2019-04-04T09:19:03.351Z,7404.00
2019-04-04T09:20:02.904Z,7216.00
2019-04-04T09:21:02.905Z,7044.00
2019-04-04T09:22:02.895Z,6852.00
2019-04-04T09:23:02.873Z,6716.00
2019-04-04T09:24:02.866Z,6676.00
2019-04-04T09:25:02.852Z,6620.00
2019-04-04T09:26:05.928Z,6592.00
2019-04-04T09:27:02.830Z,6624.00
2019-04-04T09:28:02.821Z,6612.00
2019-04-04T09:29:02.803Z,6480.00
2019-04-04T09:30:02.798Z,6280.00
2019-04-04T09:31:02.805Z,6204.00
2019-04-04T09:32:02.910Z,6264.00
2019-04-04T09:33:02.769Z,6356.00
2019-04-04T09:34:02.764Z,6408.00
2019-04-04T09:35:02.747Z,6500.00
2019-04-04T09:36:02.737Z,6700.00
2019-04-04T09:37:02.718Z,7068.00
2019-04-04T09:38:02.735Z,7836.00
2019-04-04T09:39:02.696Z,8928.00
2019-04-04T09:40:02.699Z,9808.00
2019-04-04T09:41:02.719Z,10076.00
2019-04-04T09:42:02.698Z,9976.00
2019-04-04T09:43:02.680Z,9628.00
2019-04-04T09:44:05.730Z,9196.00
2019-04-04T09:45:02.652Z,8704.00
2019-04-04T09:46:02.624Z,8180.00
2019-04-04T09:47:05.649Z,7656.00
2019-04-04T09:48:02.603Z,7180.00
2019-04-04T09:49:02.601Z,6792.00
2019-04-04T09:50:02.591Z,6520.00
2019-04-04T09:51:02.561Z,6404.00
2019-04-04T09:52:02.571Z,6416.00
2019-04-04T09:53:02.569Z,6552.00
2019-04-04T09:54:02.560Z,6888.00
2019-04-04T09:55:02.540Z,7476.00
2019-04-04T09:56:02.815Z,8360.00
2019-04-04T09:57:02.509Z,9076.00
2019-04-04T09:58:02.518Z,9324.00
2019-04-04T09:59:02.507Z,9460.00
2019-04-04T10:00:02.494Z,9764.00
2019-04-04T10:01:02.456Z,9896.00
2019-04-04T10:02:02.454Z,9872.00
2019-04-04T10:03:02.449Z,9768.00
2019-04-04T10:04:02.454Z,9704.00
2019-04-04T10:05:02.463Z,9424.00
2019-04-04T10:06:02.546Z,8920.00
2019-04-04T10:07:02.399Z,8848.00
2019-04-04T10:08:02.500Z,9236.00
2019-04-04T10:09:14.675Z,9536.00
2019-04-04T10:10:03.368Z,9644.00
2019-04-04T10:11:02.364Z,9916.00
2019-04-04T10:12:02.343Z,9928.00
2019-04-04T10:13:02.331Z,9448.00
2019-04-04T10:14:04.064Z,8892.00
2019-04-04T10:15:02.319Z,8568.00
2019-04-04T10:16:02.322Z,8436.00
2019-04-04T10:17:02.300Z,9072.00
2019-04-04T10:18:02.287Z,9584.00
2019-04-04T10:19:02.270Z,9968.00
2019-04-04T10:20:03.111Z,9684.00
2019-04-04T10:21:11.725Z,9304.00
2019-04-04T10:22:03.228Z,9064.00
2019-04-04T10:23:02.231Z,8928.00
2019-04-04T10:24:02.222Z,8612.00
2019-04-04T10:25:02.218Z,8464.00
2019-04-04T10:26:02.198Z,8224.00
2019-04-04T10:27:02.178Z,7944.00
2019-04-04T10:28:02.167Z,7772.00
2019-04-04T10:29:02.166Z,7620.00
2019-04-04T10:30:02.177Z,7484.00
2019-04-04T10:31:02.156Z,7424.00
2019-04-04T10:32:02.195Z,7488.00
2019-04-04T10:33:02.115Z,7620.00
2019-04-04T10:34:02.156Z,7876.00
2019-04-04T10:35:02.113Z,8352.00
2019-04-04T10:36:02.083Z,8700.00
2019-04-04T10:37:02.072Z,9092.00
2019-04-04T10:38:02.072Z,9512.00
2019-04-04T10:39:02.062Z,9800.00
2019-04-04T10:40:02.044Z,9864.00
2019-04-04T10:41:02.022Z,10224.00
2019-04-04T10:42:02.020Z,10544.00
2019-04-04T10:43:02.122Z,10756.00
2019-04-04T10:44:02.026Z,10708.00
2019-04-04T10:45:01.989Z,10312.00
2019-04-04T10:46:01.995Z,10212.00
2019-04-04T10:47:01.971Z,10164.00
2019-04-04T10:48:01.980Z,10068.00
2019-04-04T10:49:01.959Z,9624.00
2019-04-04T10:50:01.928Z,9220.00
2019-04-04T10:51:01.917Z,8912.00
2019-04-04T10:52:01.910Z,8460.00
2019-04-04T10:53:02.597Z,8152.00
2019-04-04T10:54:01.917Z,7968.00
2019-04-04T10:55:01.905Z,7892.00
2019-04-04T10:56:02.600Z,7844.00
2019-04-04T10:57:01.866Z,7864.00
2019-04-04T10:58:01.844Z,7916.00
2019-04-04T10:59:01.834Z,7940.00
2019-04-04T11:00:03.348Z,7940.00
2019-04-04T11:01:01.814Z,7852.00
2019-04-04T11:02:01.817Z,7744.00
2019-04-04T11:03:01.808Z,7640.00
2019-04-04T11:04:01.844Z,7588.00
2019-04-04T11:05:01.772Z,7552.00
2019-04-04T11:06:01.759Z,7440.00
2019-04-04T11:07:01.740Z,7280.00
2019-04-04T11:08:01.783Z,7088.00
2019-04-04T11:09:01.756Z,6968.00
2019-04-04T11:10:01.713Z,6972.00
2019-04-04T11:11:01.721Z,7032.00
2019-04-04T11:12:01.699Z,7148.00
2019-04-04T11:13:02.941Z,7272.00
2019-04-04T11:14:01.705Z,7372.00
2019-04-04T11:15:01.668Z,7420.00
2019-04-04T11:16:01.649Z,7280.00
2019-04-04T11:17:01.661Z,7032.00
2019-04-04T11:18:01.628Z,6768.00
2019-04-04T11:19:01.652Z,6572.00
2019-04-04T11:20:01.606Z,6452.00
2019-04-04T11:21:01.585Z,6428.00
2019-04-04T11:22:01.605Z,6448.00
2019-04-04T11:23:01.564Z,6484.00
2019-04-04T11:24:01.575Z,6540.00
2019-04-04T11:25:01.544Z,6564.00
2019-04-04T11:26:01.546Z,6500.00
2019-04-04T11:27:01.534Z,6372.00
2019-04-04T11:28:01.562Z,6268.00
2019-04-04T11:29:01.523Z,6296.00
2019-04-04T11:30:02.261Z,6436.00
2019-04-04T11:31:01.483Z,6664.00
2019-04-04T11:32:01.472Z,7008.00
2019-04-04T11:33:01.471Z,7416.00
2019-04-04T11:34:01.530Z,7624.00
2019-04-04T11:35:01.455Z,7408.00
2019-04-04T11:36:01.451Z,7088.00
2019-04-04T11:37:01.428Z,6820.00
2019-04-04T11:38:01.428Z,6528.00
2019-04-04T11:39:01.406Z,6276.00
2019-04-04T11:40:01.387Z,6184.00
2019-04-04T11:41:01.387Z,6336.00
2019-04-04T11:42:01.367Z,6644.00
2019-04-04T11:43:01.355Z,6876.00
2019-04-04T11:44:01.345Z,7000.00
2019-04-04T11:45:01.326Z,7020.00
2019-04-04T11:46:01.345Z,6992.00
2019-04-04T11:47:01.312Z,6996.00
2019-04-04T11:48:01.305Z,7072.00
2019-04-04T11:49:01.319Z,7136.00
2019-04-04T11:50:02.127Z,7156.00
2019-04-04T11:51:01.286Z,7228.00
2019-04-04T11:52:01.264Z,7444.00
2019-04-04T11:53:01.252Z,7660.00
2019-04-04T11:54:01.316Z,7912.00
2019-04-04T11:55:01.231Z,8136.00
2019-04-04T11:56:01.221Z,8284.00
2019-04-04T11:57:01.230Z,8392.00
2019-04-04T11:58:01.200Z,8484.00
2019-04-04T11:59:01.288Z,8536.00
2019-04-04T12:00:01.185Z,8444.00
2019-04-04T12:01:01.182Z,8324.00
2019-04-04T12:02:01.180Z,8336.00
2019-04-04T12:03:01.154Z,8456.00
2019-04-04T12:04:01.129Z,8652.00
2019-04-04T12:05:01.147Z,8908.00
2019-04-04T12:06:01.116Z,8976.00
2019-04-04T12:07:01.107Z,8816.00
2019-04-04T12:08:01.097Z,8552.00
2019-04-04T12:09:01.087Z,8284.00
2019-04-04T12:10:07.160Z,8052.00
2019-04-04T12:11:02.066Z,7868.00
2019-04-04T12:12:01.047Z,7708.00
2019-04-04T12:13:01.034Z,7556.00
2019-04-04T12:14:01.026Z,7408.00
2019-04-04T12:15:01.025Z,7252.00
2019-04-04T12:16:00.995Z,7124.00
2019-04-04T12:17:01.132Z,6936.00
2019-04-04T12:18:00.975Z,6768.00
2019-04-04T12:19:00.962Z,6668.00
2019-04-04T12:20:01.075Z,6668.00
2019-04-04T12:21:00.941Z,6744.00
2019-04-04T12:22:00.943Z,6760.00
2019-04-04T12:23:00.932Z,6708.00
2019-04-04T12:24:00.910Z,6692.00
2019-04-04T12:25:00.942Z,6720.00
2019-04-04T12:26:00.889Z,6748.00
2019-04-04T12:27:00.925Z,6716.00
2019-04-04T12:28:00.870Z,6652.00
2019-04-04T12:29:00.918Z,6548.00
2019-04-04T12:30:00.889Z,6440.00
2019-04-04T12:31:00.839Z,6392.00
2019-04-04T12:32:00.827Z,6360.00
2019-04-04T12:33:00.817Z,6244.00